Terminal Aerodrome Forecast
Issued by NWS

Home | Current Version | Previous Version | Text Only | Print | Product List | Glossary On
Versions: 1 2 3 4 5 6 7 8 9 10 11 12 13 14 15 16 17
000
FTAK31 PAJN 210102 AAA
TAFAYA
TAF AMD
PAYA 210102Z 2101/2124 28005KT P6SM SCT007 BKN250
      TEMPO 2102/2104 BKN007 BKN250
     FM211200 VRB03KT P6SM BKN100 BKN250
     FM212200 12006KT P6SM OVC060
      AMD LTD TO CLD VIS AND WIND=

USA.gov is the U.S. government's official web portal to all federal, state and local government web resources and services.